sensor_id;sensor_type;location;lat;lon;timestamp;pressure;altitude;pressure_sealevel;temperature;humidity
17383;BME280;8809;51.892;8.384;2023-12-14T00:01:15;99665.97;;;7.49;100.00
17383;BME280;8809;51.892;8.384;2023-12-14T00:03:42;99663.09;;;7.43;100.00
17383;BME280;8809;51.892;8.384;2023-12-14T00:06:11;99668.34;;;7.44;100.00
17383;BME280;8809;51.892;8.384;2023-12-14T00:08:38;99676.22;;;7.46;100.00
17383;BME280;8809;51.892;8.384;2023-12-14T00:11:07;99675.97;;;7.40;100.00
17383;BME280;8809;51.892;8.384;2023-12-14T00:13:35;99684.69;;;7.42;100.00
17383;BME280;8809;51.892;8.384;2023-12-14T00:16:02;99682.00;;;7.39;100.00
17383;BME280;8809;51.892;8.384;2023-12-14T00:18:29;99689.66;;;7.36;100.00
17383;BME280;8809;51.892;8.384;2023-12-14T00:20:56;99689.50;;;7.33;100.00
17383;BME280;8809;51.892;8.384;2023-12-14T00:23:25;99699.97;;;7.34;100.00
17383;BME280;8809;51.892;8.384;2023-12-14T00:25:52;99693.75;;;7.31;100.00
17383;BME280;8809;51.892;8.384;2023-12-14T00:28:21;99705.09;;;7.33;100.00
17383;BME280;8809;51.892;8.384;2023-12-14T00:30:51;99696.59;;;7.37;100.00
17383;BME280;8809;51.892;8.384;2023-12-14T00:33:18;99700.31;;;7.43;100.00
17383;BME280;8809;51.892;8.384;2023-12-14T00:35:45;99704.63;;;7.43;100.00
17383;BME280;8809;51.892;8.384;2023-12-14T00:38:12;99710.75;;;7.45;100.00
17383;BME280;8809;51.892;8.384;2023-12-14T00:40:41;99713.69;;;7.32;100.00
17383;BME280;8809;51.892;8.384;2023-12-14T00:43:08;99711.75;;;7.26;100.00
17383;BME280;8809;51.892;8.384;2023-12-14T00:45:35;99714.09;;;7.20;100.00
17383;BME280;8809;51.892;8.384;2023-12-14T00:48:02;99718.72;;;7.27;100.00
17383;BME280;8809;51.892;8.384;2023-12-14T00:50:29;99723.06;;;7.28;100.00
17383;BME280;8809;51.892;8.384;2023-12-14T00:52:56;99731.28;;;7.39;100.00
17383;BME280;8809;51.892;8.384;2023-12-14T00:55:24;99741.53;;;7.36;100.00
17383;BME280;8809;51.892;8.384;2023-12-14T00:57:52;99755.47;;;7.38;100.00
17383;BME280;8809;51.892;8.384;2023-12-14T01:00:19;99757.84;;;7.33;100.00
17383;BME280;8809;51.892;8.384;2023-12-14T01:02:46;99765.09;;;7.20;100.00
17383;BME280;8809;51.892;8.384;2023-12-14T01:05:13;99756.50;;;7.21;100.00
17383;BME280;8809;51.892;8.384;2023-12-14T01:07:40;99771.66;;;7.12;100.00
17383;BME280;8809;51.892;8.384;2023-12-14T01:10:08;99776.34;;;6.99;100.00
17383;BME280;8809;51.892;8.384;2023-12-14T01:12:35;99766.28;;;7.07;100.00
17383;BME280;8809;51.892;8.384;2023-12-14T01:15:04;99764.97;;;7.17;100.00
17383;BME280;8809;51.892;8.384;2023-12-14T01:17:31;99769.56;;;7.24;100.00
17383;BME280;8809;51.892;8.384;2023-12-14T01:20:04;99782.81;;;7.30;100.00
17383;BME280;8809;51.892;8.384;2023-12-14T01:22:31;99777.84;;;7.15;100.00
17383;BME280;8809;51.892;8.384;2023-12-14T01:24:59;99782.97;;;7.14;100.00
17383;BME280;8809;51.892;8.384;2023-12-14T01:27:26;99792.53;;;7.15;100.00
17383;BME280;8809;51.892;8.384;2023-12-14T01:29:53;99794.41;;;6.98;100.00
17383;BME280;8809;51.892;8.384;2023-12-14T01:32:21;99801.44;;;7.00;100.00
17383;BME280;8809;51.892;8.384;2023-12-14T01:34:48;99800.50;;;6.98;100.00
17383;BME280;8809;51.892;8.384;2023-12-14T01:37:15;99801.56;;;7.03;100.00
17383;BME280;8809;51.892;8.384;2023-12-14T01:39:42;99805.47;;;6.94;100.00
17383;BME280;8809;51.892;8.384;2023-12-14T01:42:09;99806.66;;;6.81;100.00
17383;BME280;8809;51.892;8.384;2023-12-14T01:44:36;99820.38;;;6.79;100.00
17383;BME280;8809;51.892;8.384;2023-12-14T01:47:03;99824.53;;;6.75;100.00
17383;BME280;8809;51.892;8.384;2023-12-14T01:49:32;99832.22;;;6.74;100.00
17383;BME280;8809;51.892;8.384;2023-12-14T01:51:59;99835.59;;;6.71;100.00
17383;BME280;8809;51.892;8.384;2023-12-14T01:54:26;99841.53;;;6.68;100.00
17383;BME280;8809;51.892;8.384;2023-12-14T01:56:53;99851.97;;;6.70;100.00
17383;BME280;8809;51.892;8.384;2023-12-14T01:59:20;99860.47;;;6.67;100.00
17383;BME280;8809;51.892;8.384;2023-12-14T02:01:52;99869.00;;;6.65;100.00
17383;BME280;8809;51.892;8.384;2023-12-14T02:04:23;99872.69;;;6.70;100.00
17383;BME280;8809;51.892;8.384;2023-12-14T02:06:52;99871.72;;;6.68;100.00
17383;BME280;8809;51.892;8.384;2023-12-14T02:09:19;99875.28;;;6.70;100.00
17383;BME280;8809;51.892;8.384;2023-12-14T02:11:46;99882.09;;;6.68;100.00
17383;BME280;8809;51.892;8.384;2023-12-14T02:14:13;99892.47;;;6.68;100.00
17383;BME280;8809;51.892;8.384;2023-12-14T02:16:40;99898.53;;;6.68;100.00
17383;BME280;8809;51.892;8.384;2023-12-14T02:19:07;99891.09;;;6.76;100.00
17383;BME280;8809;51.892;8.384;2023-12-14T02:21:34;99910.94;;;6.76;100.00
17383;BME280;8809;51.892;8.384;2023-12-14T02:24:03;99900.81;;;6.80;100.00
17383;BME280;8809;51.892;8.384;2023-12-14T02:26:30;99918.81;;;6.77;100.00
17383;BME280;8809;51.892;8.384;2023-12-14T02:28:57;99916.13;;;6.76;100.00
17383;BME280;8809;51.892;8.384;2023-12-14T02:31:24;99918.66;;;6.74;100.00
17383;BME280;8809;51.892;8.384;2023-12-14T02:33:53;99915.16;;;6.74;100.00
17383;BME280;8809;51.892;8.384;2023-12-14T02:36:20;99915.38;;;6.59;100.00
17383;BME280;8809;51.892;8.384;2023-12-14T02:38:47;99914.41;;;6.57;100.00
17383;BME280;8809;51.892;8.384;2023-12-14T02:41:15;99923.81;;;6.55;100.00
17383;BME280;8809;51.892;8.384;2023-12-14T02:43:42;99928.34;;;6.59;100.00
17383;BME280;8809;51.892;8.384;2023-12-14T02:46:09;99939.44;;;6.56;100.00
17383;BME280;8809;51.892;8.384;2023-12-14T02:48:41;99934.88;;;6.51;100.00
17383;BME280;8809;51.892;8.384;2023-12-14T02:51:12;99940.94;;;6.51;100.00
17383;BME280;8809;51.892;8.384;2023-12-14T02:53:39;99948.78;;;6.53;100.00
17383;BME280;8809;51.892;8.384;2023-12-14T02:56:08;99945.31;;;6.52;100.00
17383;BME280;8809;51.892;8.384;2023-12-14T02:58:37;99948.47;;;6.47;100.00
17383;BME280;8809;51.892;8.384;2023-12-14T03:01:04;99946.69;;;6.46;100.00
17383;BME280;8809;51.892;8.384;2023-12-14T03:03:30;99967.31;;;6.43;100.00
17383;BME280;8809;51.892;8.384;2023-12-14T03:05:57;99967.59;;;6.49;100.00
17383;BME280;8809;51.892;8.384;2023-12-14T03:08:24;99972.84;;;6.50;100.00
17383;BME280;8809;51.892;8.384;2023-12-14T03:10:51;99970.41;;;6.53;100.00
17383;BME280;8809;51.892;8.384;2023-12-14T03:13:19;99978.09;;;6.52;100.00
17383;BME280;8809;51.892;8.384;2023-12-14T03:15:47;99970.97;;;6.48;100.00
17383;BME280;8809;51.892;8.384;2023-12-14T03:18:15;99975.63;;;6.55;100.00
17383;BME280;8809;51.892;8.384;2023-12-14T03:20:42;99970.09;;;6.47;100.00
17383;BME280;8809;51.892;8.384;2023-12-14T03:23:09;99978.94;;;6.33;100.00
17383;BME280;8809;51.892;8.384;2023-12-14T03:25:36;99981.88;;;6.41;100.00
17383;BME280;8809;51.892;8.384;2023-12-14T03:28:03;99989.66;;;6.41;100.00
17383;BME280;8809;51.892;8.384;2023-12-14T03:30:30;99992.16;;;6.39;100.00
17383;BME280;8809;51.892;8.384;2023-12-14T03:32:58;99995.13;;;6.29;100.00
17383;BME280;8809;51.892;8.384;2023-12-14T03:35:26;99994.84;;;6.41;100.00
17383;BME280;8809;51.892;8.384;2023-12-14T03:37:53;100010.00;;;6.33;100.00
17383;BME280;8809;51.892;8.384;2023-12-14T03:40:20;100018.28;;;6.26;100.00
17383;BME280;8809;51.892;8.384;2023-12-14T03:42:47;100021.91;;;6.29;100.00
17383;BME280;8809;51.892;8.384;2023-12-14T03:45:14;100017.91;;;6.36;100.00
17383;BME280;8809;51.892;8.384;2023-12-14T03:47:41;100021.19;;;6.32;100.00
17383;BME280;8809;51.892;8.384;2023-12-14T03:50:11;100021.19;;;6.32;100.00
17383;BME280;8809;51.892;8.384;2023-12-14T03:52:38;100034.88;;;6.29;100.00
17383;BME280;8809;51.892;8.384;2023-12-14T03:55:06;100031.38;;;6.29;100.00
17383;BME280;8809;51.892;8.384;2023-12-14T03:57:33;100039.25;;;6.30;100.00
17383;BME280;8809;51.892;8.384;2023-12-14T04:00:00;100040.94;;;6.30;100.00
17383;BME280;8809;51.892;8.384;2023-12-14T04:02:27;100048.88;;;6.33;100.00
17383;BME280;8809;51.892;8.384;2023-12-14T04:04:54;100056.47;;;6.30;100.00
17383;BME280;8809;51.892;8.384;2023-12-14T04:07:23;100057.13;;;6.26;100.00
17383;BME280;8809;51.892;8.384;2023-12-14T04:09:50;100050.31;;;6.28;100.00
17383;BME280;8809;51.892;8.384;2023-12-14T04:12:17;100050.94;;;6.22;100.00
17383;BME280;8809;51.892;8.384;2023-12-14T04:14:45;100066.47;;;6.22;100.00
17383;BME280;8809;51.892;8.384;2023-12-14T04:17:12;100061.50;;;6.27;100.00
17383;BME280;8809;51.892;8.384;2023-12-14T04:19:39;100064.47;;;6.34;100.00
17383;BME280;8809;51.892;8.384;2023-12-14T04:22:06;100074.38;;;6.25;100.00
17383;BME280;8809;51.892;8.384;2023-12-14T04:24:35;100080.22;;;6.21;100.00
17383;BME280;8809;51.892;8.384;2023-12-14T04:27:02;100087.53;;;6.12;100.00
17383;BME280;8809;51.892;8.384;2023-12-14T04:29:29;100097.72;;;6.09;100.00
17383;BME280;8809;51.892;8.384;2023-12-14T04:31:56;100103.72;;;6.08;100.00
17383;BME280;8809;51.892;8.384;2023-12-14T04:34:23;100111.41;;;6.07;100.00
17383;BME280;8809;51.892;8.384;2023-12-14T04:36:50;100102.44;;;6.00;100.00
17383;BME280;8809;51.892;8.384;2023-12-14T04:39:18;100113.59;;;5.99;100.00
17383;BME280;8809;51.892;8.384;2023-12-14T04:41:46;100122.25;;;6.00;100.00
17383;BME280;8809;51.892;8.384;2023-12-14T04:44:13;100134.22;;;5.97;100.00
17383;BME280;8809;51.892;8.384;2023-12-14T04:46:40;100128.97;;;5.96;100.00
17383;BME280;8809;51.892;8.384;2023-12-14T04:49:08;100131.56;;;5.96;100.00
17383;BME280;8809;51.892;8.384;2023-12-14T04:51:35;100127.50;;;6.01;100.00
17383;BME280;8809;51.892;8.384;2023-12-14T04:54:02;100134.88;;;6.10;100.00
17383;BME280;8809;51.892;8.384;2023-12-14T04:56:29;100134.66;;;6.05;100.00
17383;BME280;8809;51.892;8.384;2023-12-14T04:58:57;100138.00;;;6.20;100.00
17383;BME280;8809;51.892;8.384;2023-12-14T05:01:24;100146.59;;;6.19;100.00
17383;BME280;8809;51.892;8.384;2023-12-14T05:03:52;100151.13;;;6.23;100.00
17383;BME280;8809;51.892;8.384;2023-12-14T05:06:19;100159.72;;;6.22;100.00
17383;BME280;8809;51.892;8.384;2023-12-14T05:08:46;100161.97;;;6.16;100.00
17383;BME280;8809;51.892;8.384;2023-12-14T05:11:13;100164.41;;;6.13;100.00
17383;BME280;8809;51.892;8.384;2023-12-14T05:13:40;100168.53;;;6.10;100.00
17383;BME280;8809;51.892;8.384;2023-12-14T05:16:13;100179.06;;;6.13;100.00
17383;BME280;8809;51.892;8.384;2023-12-14T05:18:40;100186.66;;;6.10;100.00
17383;BME280;8809;51.892;8.384;2023-12-14T05:21:08;100190.06;;;6.09;100.00
17383;BME280;8809;51.892;8.384;2023-12-14T05:23:35;100190.31;;;6.13;100.00
17383;BME280;8809;51.892;8.384;2023-12-14T05:26:02;100189.81;;;6.04;100.00
17383;BME280;8809;51.892;8.384;2023-12-14T05:28:29;100194.56;;;5.96;100.00
17383;BME280;8809;51.892;8.384;2023-12-14T05:30:56;100197.44;;;6.01;100.00
17383;BME280;8809;51.892;8.384;2023-12-14T05:33:24;100191.09;;;5.96;100.00
17383;BME280;8809;51.892;8.384;2023-12-14T05:35:51;100197.91;;;5.94;100.00
17383;BME280;8809;51.892;8.384;2023-12-14T05:38:19;100197.13;;;5.95;100.00
17383;BME280;8809;51.892;8.384;2023-12-14T05:40:46;100203.25;;;5.97;100.00
17383;BME280;8809;51.892;8.384;2023-12-14T05:43:13;100210.47;;;6.03;100.00
17383;BME280;8809;51.892;8.384;2023-12-14T05:45:40;100209.41;;;5.99;100.00
17383;BME280;8809;51.892;8.384;2023-12-14T05:48:08;100222.34;;;5.99;100.00
17383;BME280;8809;51.892;8.384;2023-12-14T05:50:36;100228.19;;;5.95;100.00
17383;BME280;8809;51.892;8.384;2023-12-14T05:53:03;100233.19;;;5.92;100.00
17383;BME280;8809;51.892;8.384;2023-12-14T05:55:30;100240.78;;;5.89;100.00
17383;BME280;8809;51.892;8.384;2023-12-14T05:57:57;100244.03;;;5.86;100.00
17383;BME280;8809;51.892;8.384;2023-12-14T06:00:24;100244.78;;;5.84;100.00
17383;BME280;8809;51.892;8.384;2023-12-14T06:02:51;100246.56;;;5.85;100.00
17383;BME280;8809;51.892;8.384;2023-12-14T06:05:18;100239.00;;;5.88;100.00
17383;BME280;8809;51.892;8.384;2023-12-14T06:07:47;100238.47;;;5.79;100.00
17383;BME280;8809;51.892;8.384;2023-12-14T06:10:14;100250.59;;;5.80;100.00
17383;BME280;8809;51.892;8.384;2023-12-14T06:12:41;100252.19;;;5.78;100.00
17383;BME280;8809;51.892;8.384;2023-12-14T06:15:08;100251.25;;;5.76;100.00
17383;BME280;8809;51.892;8.384;2023-12-14T06:17:36;100256.13;;;5.86;100.00
17383;BME280;8809;51.892;8.384;2023-12-14T06:20:06;100260.63;;;5.74;100.00
17383;BME280;8809;51.892;8.384;2023-12-14T06:22:35;100247.84;;;5.77;100.00
17383;BME280;8809;51.892;8.384;2023-12-14T06:25:04;100264.19;;;5.76;100.00
17383;BME280;8809;51.892;8.384;2023-12-14T06:27:32;100275.94;;;5.85;100.00
17383;BME280;8809;51.892;8.384;2023-12-14T06:29:59;100271.13;;;5.77;100.00
17383;BME280;8809;51.892;8.384;2023-12-14T06:32:25;100272.16;;;5.64;100.00
17383;BME280;8809;51.892;8.384;2023-12-14T06:34:53;100282.13;;;5.73;100.00
17383;BME280;8809;51.892;8.384;2023-12-14T06:37:20;100288.50;;;5.63;100.00
17383;BME280;8809;51.892;8.384;2023-12-14T06:39:47;100296.44;;;5.66;100.00
17383;BME280;8809;51.892;8.384;2023-12-14T06:42:15;100302.56;;;5.68;100.00
17383;BME280;8809;51.892;8.384;2023-12-14T06:44:42;100299.44;;;5.74;100.00
17383;BME280;8809;51.892;8.384;2023-12-14T06:47:09;100300.25;;;5.73;100.00
17383;BME280;8809;51.892;8.384;2023-12-14T06:49:36;100310.59;;;5.73;100.00
17383;BME280;8809;51.892;8.384;2023-12-14T06:52:04;100327.13;;;5.75;100.00
17383;BME280;8809;51.892;8.384;2023-12-14T06:54:31;100326.13;;;5.73;100.00
17383;BME280;8809;51.892;8.384;2023-12-14T06:56:58;100329.25;;;5.67;100.00
17383;BME280;8809;51.892;8.384;2023-12-14T06:59:26;100330.13;;;5.68;100.00
17383;BME280;8809;51.892;8.384;2023-12-14T07:01:53;100336.94;;;5.66;100.00
17383;BME280;8809;51.892;8.384;2023-12-14T07:04:21;100341.31;;;5.67;100.00
17383;BME280;8809;51.892;8.384;2023-12-14T07:06:52;100346.66;;;5.70;100.00
17383;BME280;8809;51.892;8.384;2023-12-14T07:09:19;100362.88;;;5.67;100.00
17383;BME280;8809;51.892;8.384;2023-12-14T07:11:46;100355.97;;;5.66;100.00
17383;BME280;8809;51.892;8.384;2023-12-14T07:14:13;100358.59;;;5.68;100.00
17383;BME280;8809;51.892;8.384;2023-12-14T07:16:41;100369.69;;;5.65;100.00
17383;BME280;8809;51.892;8.384;2023-12-14T07:19:09;100377.38;;;5.64;100.00
17383;BME280;8809;51.892;8.384;2023-12-14T07:21:36;100390.41;;;5.65;100.00
17383;BME280;8809;51.892;8.384;2023-12-14T07:24:04;100400.66;;;5.64;100.00
17383;BME280;8809;51.892;8.384;2023-12-14T07:26:31;100410.31;;;5.66;100.00
17383;BME280;8809;51.892;8.384;2023-12-14T07:28:58;100415.38;;;5.65;100.00
17383;BME280;8809;51.892;8.384;2023-12-14T07:31:25;100425.72;;;5.65;100.00
17383;BME280;8809;51.892;8.384;2023-12-14T07:33:55;100425.72;;;5.65;100.00
17383;BME280;8809;51.892;8.384;2023-12-14T07:36:22;100433.75;;;5.54;100.00
17383;BME280;8809;51.892;8.384;2023-12-14T07:38:50;100432.50;;;5.63;100.00
17383;BME280;8809;51.892;8.384;2023-12-14T07:41:18;100437.59;;;5.61;100.00
17383;BME280;8809;51.892;8.384;2023-12-14T07:43:45;100444.38;;;5.74;100.00
17383;BME280;8809;51.892;8.384;2023-12-14T07:46:12;100442.41;;;5.70;100.00
17383;BME280;8809;51.892;8.384;2023-12-14T07:48:40;100439.81;;;5.70;100.00
17383;BME280;8809;51.892;8.384;2023-12-14T07:51:08;100452.84;;;5.71;100.00
17383;BME280;8809;51.892;8.384;2023-12-14T07:53:35;100454.53;;;5.71;100.00
17383;BME280;8809;51.892;8.384;2023-12-14T07:56:05;100465.53;;;5.67;100.00
17383;BME280;8809;51.892;8.384;2023-12-14T07:58:32;100469.88;;;5.68;100.00
17383;BME280;8809;51.892;8.384;2023-12-14T08:00:59;100479.19;;;5.64;100.00
17383;BME280;8809;51.892;8.384;2023-12-14T08:03:26;100484.16;;;5.61;100.00
17383;BME280;8809;51.892;8.384;2023-12-14T08:05:53;100486.06;;;5.64;100.00
17383;BME280;8809;51.892;8.384;2023-12-14T08:08:21;100487.75;;;5.63;100.00
17383;BME280;8809;51.892;8.384;2023-12-14T08:10:49;100493.72;;;5.62;100.00
17383;BME280;8809;51.892;8.384;2023-12-14T08:13:16;100505.75;;;5.62;100.00
17383;BME280;8809;51.892;8.384;2023-12-14T08:15:44;100503.78;;;5.57;100.00
17383;BME280;8809;51.892;8.384;2023-12-14T08:18:11;100515.66;;;5.54;100.00
17383;BME280;8809;51.892;8.384;2023-12-14T08:20:38;100513.78;;;5.51;100.00
17383;BME280;8809;51.892;8.384;2023-12-14T08:23:06;100527.41;;;5.49;100.00
17383;BME280;8809;51.892;8.384;2023-12-14T08:25:35;100532.25;;;5.57;100.00
17383;BME280;8809;51.892;8.384;2023-12-14T08:28:02;100536.47;;;5.55;100.00
17383;BME280;8809;51.892;8.384;2023-12-14T08:30:29;100542.53;;;5.56;100.00
17383;BME280;8809;51.892;8.384;2023-12-14T08:32:56;100542.53;;;5.56;100.00
17383;BME280;8809;51.892;8.384;2023-12-14T08:35:23;100545.28;;;5.59;100.00
17383;BME280;8809;51.892;8.384;2023-12-14T08:37:50;100546.81;;;5.55;100.00
17383;BME280;8809;51.892;8.384;2023-12-14T08:40:18;100553.59;;;5.53;100.00
17383;BME280;8809;51.892;8.384;2023-12-14T08:42:46;100548.22;;;5.50;100.00
17383;BME280;8809;51.892;8.384;2023-12-14T08:45:14;100554.56;;;5.55;100.00
17383;BME280;8809;51.892;8.384;2023-12-14T08:47:41;100556.53;;;5.59;100.00
17383;BME280;8809;51.892;8.384;2023-12-14T08:50:08;100557.97;;;5.54;100.00
17383;BME280;8809;51.892;8.384;2023-12-14T08:52:36;100555.81;;;5.47;100.00
17383;BME280;8809;51.892;8.384;2023-12-14T08:55:04;100562.03;;;5.51;100.00
17383;BME280;8809;51.892;8.384;2023-12-14T08:57:31;100560.72;;;5.57;100.00
17383;BME280;8809;51.892;8.384;2023-12-14T08:59:59;100564.72;;;5.52;100.00
17383;BME280;8809;51.892;8.384;2023-12-14T09:02:27;100572.28;;;5.49;100.00
17383;BME280;8809;51.892;8.384;2023-12-14T09:04:54;100579.47;;;5.53;100.00
17383;BME280;8809;51.892;8.384;2023-12-14T09:07:21;100575.69;;;5.48;100.00
17383;BME280;8809;51.892;8.384;2023-12-14T09:09:48;100581.34;;;5.56;100.00
17383;BME280;8809;51.892;8.384;2023-12-14T09:12:15;100587.91;;;5.51;100.00
17383;BME280;8809;51.892;8.384;2023-12-14T09:14:44;100605.09;;;5.64;100.00
17383;BME280;8809;51.892;8.384;2023-12-14T09:17:15;100604.31;;;5.65;100.00
17383;BME280;8809;51.892;8.384;2023-12-14T09:19:42;100609.19;;;5.60;100.00
17383;BME280;8809;51.892;8.384;2023-12-14T09:22:09;100623.91;;;5.61;100.00
17383;BME280;8809;51.892;8.384;2023-12-14T09:24:36;100627.59;;;5.65;100.00
17383;BME280;8809;51.892;8.384;2023-12-14T09:27:03;100630.28;;;5.66;100.00
17383;BME280;8809;51.892;8.384;2023-12-14T09:29:30;100626.00;;;5.67;100.00
17383;BME280;8809;51.892;8.384;2023-12-14T09:31:58;100627.59;;;5.65;100.00
17383;BME280;8809;51.892;8.384;2023-12-14T09:34:26;100631.16;;;5.67;100.00
17383;BME280;8809;51.892;8.384;2023-12-14T09:36:53;100631.16;;;5.67;100.00
17383;BME280;8809;51.892;8.384;2023-12-14T09:39:21;100638.94;;;5.67;100.00
17383;BME280;8809;51.892;8.384;2023-12-14T09:41:50;100635.72;;;5.71;100.00
17383;BME280;8809;51.892;8.384;2023-12-14T09:44:17;100639.28;;;5.73;100.00
17383;BME280;8809;51.892;8.384;2023-12-14T09:46:45;100650.00;;;5.79;100.00
17383;BME280;8809;51.892;8.384;2023-12-14T09:49:15;100651.53;;;5.75;100.00
17383;BME280;8809;51.892;8.384;2023-12-14T09:51:44;100660.00;;;5.73;100.00
17383;BME280;8809;51.892;8.384;2023-12-14T09:54:10;100662.69;;;5.74;100.00
17383;BME280;8809;51.892;8.384;2023-12-14T09:56:46;100672.50;;;5.80;100.00
17383;BME280;8809;51.892;8.384;2023-12-14T09:59:13;100679.38;;;5.79;100.00
17383;BME280;8809;51.892;8.384;2023-12-14T10:01:41;100685.19;;;5.75;100.00
17383;BME280;8809;51.892;8.384;2023-12-14T10:04:09;100688.47;;;5.73;100.00
17383;BME280;8809;51.892;8.384;2023-12-14T10:06:37;100694.56;;;5.73;100.00
17383;BME280;8809;51.892;8.384;2023-12-14T10:09:06;100701.69;;;5.77;100.00
17383;BME280;8809;51.892;8.384;2023-12-14T10:11:36;100701.97;;;5.82;100.00
17383;BME280;8809;51.892;8.384;2023-12-14T10:14:17;100703.78;;;5.83;100.00
17383;BME280;8809;51.892;8.384;2023-12-14T10:16:45;100705.59;;;5.71;100.00
17383;BME280;8809;51.892;8.384;2023-12-14T10:19:12;100717.75;;;5.72;100.00
17383;BME280;8809;51.892;8.384;2023-12-14T10:21:39;100710.97;;;5.74;100.00
17383;BME280;8809;51.892;8.384;2023-12-14T10:24:08;100717.94;;;5.75;100.00
17383;BME280;8809;51.892;8.384;2023-12-14T10:26:35;100710.78;;;5.71;100.00
17383;BME280;8809;51.892;8.384;2023-12-14T10:29:03;100721.91;;;5.70;100.00
17383;BME280;8809;51.892;8.384;2023-12-14T10:31:30;100714.16;;;5.70;100.00
17383;BME280;8809;51.892;8.384;2023-12-14T10:33:57;100724.50;;;5.70;100.00
17383;BME280;8809;51.892;8.384;2023-12-14T10:36:25;100723.50;;;5.68;100.00
17383;BME280;8809;51.892;8.384;2023-12-14T10:38:56;100726.50;;;5.74;100.00
17383;BME280;8809;51.892;8.384;2023-12-14T10:41:25;100733.88;;;5.68;100.00
17383;BME280;8809;51.892;8.384;2023-12-14T10:43:55;100731.09;;;5.65;100.00
17383;BME280;8809;51.892;8.384;2023-12-14T10:46:23;100735.28;;;5.63;100.00
17383;BME280;8809;51.892;8.384;2023-12-14T10:48:51;100731.59;;;5.59;100.00
17383;BME280;8809;51.892;8.384;2023-12-14T10:51:20;100743.03;;;5.63;100.00
17383;BME280;8809;51.892;8.384;2023-12-14T10:53:48;100743.16;;;5.64;100.00
17383;BME280;8809;51.892;8.384;2023-12-14T10:56:18;100743.25;;;5.66;100.00
17383;BME280;8809;51.892;8.384;2023-12-14T10:58:48;100742.53;;;5.68;100.00
17383;BME280;8809;51.892;8.384;2023-12-14T11:01:16;100747.22;;;5.74;100.00
17383;BME280;8809;51.892;8.384;2023-12-14T11:03:44;100754.78;;;5.71;100.00
17383;BME280;8809;51.892;8.384;2023-12-14T11:06:21;100748.00;;;5.73;100.00
17383;BME280;8809;51.892;8.384;2023-12-14T11:08:56;100760.06;;;5.72;100.00
17383;BME280;8809;51.892;8.384;2023-12-14T11:11:27;100763.53;;;5.73;100.00
17383;BME280;8809;51.892;8.384;2023-12-14T11:13:56;100766.34;;;5.76;100.00
17383;BME280;8809;51.892;8.384;2023-12-14T11:16:26;100769.88;;;5.78;100.00
17383;BME280;8809;51.892;8.384;2023-12-14T11:19:29;100775.16;;;5.79;100.00
17383;BME280;8809;51.892;8.384;2023-12-14T11:22:09;100769.19;;;5.80;100.00
17383;BME280;8809;51.892;8.384;2023-12-14T11:24:41;100773.25;;;5.77;100.00
17383;BME280;8809;51.892;8.384;2023-12-14T11:27:09;100780.22;;;5.78;100.00
17383;BME280;8809;51.892;8.384;2023-12-14T11:29:38;100788.50;;;5.85;100.00
17383;BME280;8809;51.892;8.384;2023-12-14T11:32:07;100787.03;;;5.89;100.00
17383;BME280;8809;51.892;8.384;2023-12-14T11:34:35;100785.53;;;5.92;100.00
17383;BME280;8809;51.892;8.384;2023-12-14T11:37:02;100796.16;;;5.97;100.00
17383;BME280;8809;51.892;8.384;2023-12-14T11:39:31;100791.41;;;5.90;100.00
17383;BME280;8809;51.892;8.384;2023-12-14T11:41:59;100800.19;;;5.92;100.00
17383;BME280;8809;51.892;8.384;2023-12-14T11:44:27;100794.38;;;5.96;100.00
17383;BME280;8809;51.892;8.384;2023-12-14T11:46:55;100797.84;;;5.96;100.00
17383;BME280;8809;51.892;8.384;2023-12-14T11:49:26;100802.44;;;6.01;100.00
17383;BME280;8809;51.892;8.384;2023-12-14T11:51:54;100804.22;;;6.02;100.00
17383;BME280;8809;51.892;8.384;2023-12-14T11:54:21;100801.66;;;6.02;100.00
17383;BME280;8809;51.892;8.384;2023-12-14T11:56:49;100812.09;;;6.03;100.00
17383;BME280;8809;51.892;8.384;2023-12-14T11:59:17;100815.88;;;6.08;100.00
17383;BME280;8809;51.892;8.384;2023-12-14T12:01:56;100809.09;;;6.10;100.00
17383;BME280;8809;51.892;8.384;2023-12-14T12:04:23;100814.47;;;6.13;100.00
17383;BME280;8809;51.892;8.384;2023-12-14T12:06:59;100820.63;;;6.15;100.00
17383;BME280;8809;51.892;8.384;2023-12-14T12:09:37;100826.19;;;6.21;100.00
17383;BME280;8809;51.892;8.384;2023-12-14T12:12:08;100835.94;;;6.25;100.00
17383;BME280;8809;51.892;8.384;2023-12-14T12:14:37;100833.16;;;6.22;100.00
17383;BME280;8809;51.892;8.384;2023-12-14T12:17:06;100839.53;;;6.27;100.00
17383;BME280;8809;51.892;8.384;2023-12-14T12:19:36;100841.41;;;6.30;100.00
17383;BME280;8809;51.892;8.384;2023-12-14T12:22:04;100840.72;;;6.32;100.00
17383;BME280;8809;51.892;8.384;2023-12-14T12:24:31;100849.66;;;6.38;100.00
17383;BME280;8809;51.892;8.384;2023-12-14T12:27:00;100840.88;;;6.36;100.00
17383;BME280;8809;51.892;8.384;2023-12-14T12:29:27;100845.56;;;6.41;100.00
17383;BME280;8809;51.892;8.384;2023-12-14T12:31:54;100840.38;;;6.41;100.00
17383;BME280;8809;51.892;8.384;2023-12-14T12:34:23;100841.16;;;6.53;100.00
17383;BME280;8809;51.892;8.384;2023-12-14T12:36:50;100842.31;;;6.58;100.00
17383;BME280;8809;51.892;8.384;2023-12-14T12:39:21;100838.63;;;6.55;100.00
17383;BME280;8809;51.892;8.384;2023-12-14T12:41:48;100845.00;;;6.60;100.00
17383;BME280;8809;51.892;8.384;2023-12-14T12:44:16;100849.38;;;6.61;100.00
17383;BME280;8809;51.892;8.384;2023-12-14T12:46:44;100843.41;;;6.62;100.00
17383;BME280;8809;51.892;8.384;2023-12-14T12:49:11;100829.81;;;6.66;100.00
17383;BME280;8809;51.892;8.384;2023-12-14T12:51:40;100836.00;;;6.68;100.00
17383;BME280;8809;51.892;8.384;2023-12-14T12:54:07;100836.72;;;6.80;100.00
17383;BME280;8809;51.892;8.384;2023-12-14T12:56:34;100839.97;;;6.91;100.00
17383;BME280;8809;51.892;8.384;2023-12-14T12:59:01;100844.97;;;6.88;100.00
17383;BME280;8809;51.892;8.384;2023-12-14T13:01:30;100851.56;;;6.83;100.00
17383;BME280;8809;51.892;8.384;2023-12-14T13:03:57;100845.50;;;6.82;100.00
17383;BME280;8809;51.892;8.384;2023-12-14T13:06:24;100859.91;;;6.64;100.00